Latest Weather Observations for Bourke

IDN60801

Issued at 11:35 pm EST Wednesday 23 July 2014 (issued every 30 minutes, with the page automatically refreshed every 10 minutes)

About weather observations | Map of weather stations | Latest weather observations for NSW | Other Formats
Station Details ID: 048245 Name: BOURKE AIRPORT AWS Lat: -30.04 Lon: 145.95 Height: 107.3 m
Data from the previous 72 hours. | See also: Recent months at Bourke
Date/Time
EST
Temp
°C
App
Temp
°C
Dew
Point
Rel
Hum
%
Delta-T
°C
Wind Press
QNH
hPa
Press
MSL
hPa
Rain
since 9 am
mm
Dir
 
Spd
km/h
Gust
km/h
Spd
kts
Gust
kts
23/11:30pm 11.7 7.9 4.0 59 3.5 NE 13 15 7 8 1017.5 - 0.0
23/11:00pm 12.5 9.5 4.0 56 3.8 ENE 9 11 5 6 1018.0 1018.1 0.0
23/10:30pm 12.9 10.3 4.1 55 4.0 E 7 9 4 5 1018.2 - 0.0
23/10:00pm 13.4 10.8 4.0 53 4.3 E 7 9 4 5 1018.3 1018.4 0.0
23/09:30pm 14.0 10.7 4.3 52 4.5 E 11 17 6 9 1018.4 - 0.0
23/09:00pm 13.4 10.8 4.3 54 4.2 E 7 9 4 5 1018.7 1018.8 0.0
23/08:30pm 12.9 9.9 4.1 55 4.0 ENE 9 11 5 6 1018.7 - 0.0
23/08:00pm 13.1 10.5 4.3 55 4.0 NE 7 9 4 5 1018.9 1019.0 0.0
23/07:30pm 13.7 11.1 4.3 53 4.3 ENE 7 9 4 5 1018.6 - 0.0
23/07:00pm 14.0 10.7 4.3 52 4.5 ENE 11 13 6 7 1017.9 1018.0 0.0
23/06:30pm 14.8 12.4 4.2 49 4.9 ENE 6 7 3 4 1018.4 - 0.0
23/06:00pm 15.7 12.7 4.1 46 5.4 ENE 9 9 5 5 1018.4 1018.5 0.0
23/05:30pm 16.9 13.9 3.9 42 6.1 NE 9 13 5 7 1018.5 - 0.0
23/05:00pm 18.3 14.9 3.8 38 6.8 NNE 11 13 6 7 1018.6 1018.7 0.0
23/04:30pm 18.7 14.3 2.9 35 7.4 NE 15 20 8 11 1017.8 - 0.0
23/04:00pm 19.0 14.8 4.0 37 7.1 NNE 15 20 8 11 1017.8 1017.9 0.0
23/03:30pm 19.1 14.0 3.3 35 7.4 NNE 19 24 10 13 1017.8 - 0.0
23/03:00pm 19.7 15.6 4.2 36 7.4 ENE 15 24 8 13 1017.9 1018.0 0.0
23/02:30pm 20.0 15.0 3.7 34 7.8 NE 19 24 10 13 1018.0 - 0.0
23/02:00pm 19.7 15.6 4.6 37 7.3 NE 15 22 8 12 1018.5 1018.6 0.0
23/01:30pm 19.2 15.4 5.6 41 6.7 ENE 15 24 8 13 1018.9 - 0.0
23/01:00pm 18.0 14.7 6.2 46 5.8 ENE 13 20 7 11 1019.4 1019.4 0.0
23/12:30pm 17.4 14.7 7.2 51 5.1 E 11 17 6 9 1020.2 - 0.0
23/12:00pm 16.8 13.6 6.9 52 4.9 E 13 19 7 10 1020.7 1020.8 0.0
23/11:30am 16.2 13.0 6.9 54 4.6 E 13 17 7 9 1021.4 - 0.0
23/11:00am 15.6 12.5 7.1 57 4.2 NE 13 15 7 8 1022.1 1022.2 0.0
23/10:30am 14.9 10.6 7.2 60 3.8 ENE 19 24 10 13 1022.0 - 0.0
23/10:00am 14.2 10.3 7.0 62 3.5 E 17 24 9 13 1022.7 1022.8 0.0
23/09:30am 13.3 9.7 6.9 65 3.1 E 15 19 8 10 1022.8 - 0.0
23/09:00am 11.1 8.7 6.8 75 2.0 E 9 15 5 8 1022.9 1023.0 0.0
23/08:30am 8.1 7.1 5.7 85 1.1 CALM 0 6 0 3 1023.0 - 0.0
23/08:00am 5.6 4.3 3.9 89 0.7 CALM 0 0 0 0 1022.7 1022.8 0.0
23/07:30am 4.2 2.6 2.2 87 0.8 CALM 0 0 0 0 1022.5 - 0.0
23/07:00am 5.0 2.4 4.0 93 0.4 SSE 7 7 4 4 1021.8 1021.9 0.0
23/06:30am 3.5 1.4 1.5 87 0.8 SSE 2 6 1 3 1021.6 - 0.0
23/06:00am 3.1 1.3 1.2 87 0.7 CALM 0 0 0 0 1021.7 1021.8 0.0
23/05:30am 2.7 0.0 0.6 86 0.8 S 4 6 2 3 1021.5 - 0.0
23/05:00am 2.8 -0.2 0.7 86 0.8 S 6 7 3 4 1021.6 1021.7 0.0
23/04:30am 2.8 -0.2 0.7 86 0.8 SSE 6 9 3 5 1021.4 - 0.0
23/04:00am 2.8 -0.5 0.4 84 0.9 SSE 7 9 4 5 1021.4 1021.5 0.0
23/03:30am 3.4 0.3 1.4 87 0.8 SSE 7 9 4 5 1021.5 - 0.0
23/03:00am 3.5 0.0 1.2 85 0.9 SSE 9 9 5 5 1021.3 1021.4 0.0
23/02:30am 4.2 1.3 1.7 84 1.0 SSE 6 7 3 4 1021.4 - 0.0
23/02:00am 3.8 0.8 1.0 82 1.1 SSE 6 7 3 4 1021.6 1021.7 0.0
23/01:30am 3.6 0.3 0.0 77 1.4 SE 7 7 4 4 1021.4 - 0.0
23/01:00am 4.2 1.2 0.7 78 1.3 SE 6 7 3 4 1021.5 1021.6 0.0
23/12:30am 4.6 1.4 0.9 77 1.4 SE 7 7 4 4 1021.6 - 0.0
23/12:00am 4.8 1.6 0.8 75 1.6 ESE 7 9 4 5 1021.6 1021.7 0.0
 
Date/Time
EST
Temp
°C
App
Temp
°C
Dew
Point
Rel
Hum
%
Delta-T
°C
Wind Press
QNH
hPa
Press
MSL
hPa
Rain
since 9 am
mm
Dir
 
Spd
km/h
Gust
km/h
Spd
kts
Gust
kts
22/11:30pm 5.4 2.4 0.8 72 1.8 ESE 6 6 3 3 1022.0 - 0.0
22/11:00pm 6.2 3.2 1.7 73 1.8 ESE 7 9 4 5 1022.0 1022.1 0.0
22/10:30pm 6.5 3.7 1.8 72 1.9 ESE 6 9 3 5 1022.2 - 0.0
22/10:00pm 7.0 4.4 1.1 66 2.4 ESE 4 6 2 3 1022.3 1022.4 0.0
22/09:30pm 9.0 6.1 2.6 64 2.7 ESE 7 7 4 4 1022.0 - 0.0
22/09:00pm 11.3 8.1 3.1 57 3.6 SE 9 9 5 5 1022.0 1022.1 0.0
22/08:30pm 11.9 8.5 4.2 59 3.5 SE 11 13 6 7 1021.8 - 0.0
22/08:00pm 10.4 7.3 3.4 62 3.1 SSE 9 11 5 6 1021.6 1021.7 0.0
22/07:30pm 10.3 7.5 3.1 61 3.1 SSE 7 9 4 5 1021.7 - 0.0
22/07:00pm 10.8 7.9 2.6 57 3.5 SSE 7 9 4 5 1021.5 1021.6 0.0
22/06:30pm 12.5 9.8 2.4 50 4.4 SSE 6 6 3 3 1021.4 - 0.0
22/06:00pm 14.3 11.3 2.2 44 5.3 SSE 7 7 4 4 1021.2 1021.3 0.0
22/05:48pm 15.2 12.3 2.4 42 5.7 SSE 7 7 4 4 1021.3 - 0.0
22/05:47pm -48.9 - - - - SSE 7 7 4 4 1021.3 - 0.0
22/05:30pm 17.2 14.4 3.1 39 6.5 S 7 9 4 5 1021.3 - 0.0
22/05:14pm 18.3 14.8 3.4 37 7.0 S 11 15 6 8 1021.1 - 0.0
22/05:08pm -36.4 -42.5 -45.7 38 0.1 S 11 15 6 8 1021.1 - 0.0
22/05:07pm -30.4 -36.4 -42.6 29 0.3 S 11 15 6 8 1021.1 - 0.0
22/05:06pm -41.9 -47.6 -47.6 54 0.0 S 9 15 5 8 1021.1 - 0.0
22/05:00pm -36.8 -42.5 -44.2 46 0.1 SSE 9 15 5 8 1021.0 1021.1 0.0
22/04:30pm - - - - - S 13 20 7 11 1020.9 - 0.0
22/04:00pm - - - - - SSE 15 20 8 11 1020.8 1020.9 0.0
22/03:30pm - - - - - S 11 17 6 9 1020.6 - 0.0
22/03:00pm - - - - - S 13 22 7 12 1020.8 1020.9 0.0
22/02:30pm - - - - - S 17 24 9 13 1020.8 - 0.0
22/02:00pm - - - - - SSW 13 20 7 11 1020.8 1020.9 0.0
22/01:30pm - - - - - SSW 11 17 6 9 1021.1 - 0.0
22/01:00pm - - - - - S 13 20 7 11 1021.7 1021.8 0.0
22/12:30pm - - - - - SW 9 17 5 9 1022.2 - 0.0
22/12:00pm - - - - - SSE 13 20 7 11 1022.7 1022.8 0.0
22/11:30am 17.5 14.8 5.4 45 5.9 SW 9 15 5 8 1023.3 - 0.0
22/11:00am 16.9 14.7 6.4 50 5.2 SSE 7 13 4 7 1023.7 1023.8 0.0
22/10:30am 16.0 14.3 7.7 58 4.2 SSW 6 7 3 4 1023.9 - 0.0
22/10:00am 14.3 13.4 7.6 64 3.3 SW 2 6 1 3 1024.1 1024.2 0.0
22/09:30am 11.9 10.0 6.8 71 2.4 SSE 6 7 3 4 1023.9 - 0.0
22/09:00am 10.0 8.1 6.5 79 1.6 S 6 7 3 4 1023.7 1023.8 0.0
22/08:30am 7.1 4.7 4.4 83 1.2 SW 6 7 3 4 1023.6 - 0.0
22/08:00am 4.5 2.9 2.5 87 0.8 CALM 0 6 0 3 1023.4 1023.5 0.0
22/07:30am 0.9 -1.1 -0.4 91 0.5 CALM 0 0 0 0 1022.9 - 0.0
22/07:00am 0.3 -1.8 -1.1 90 0.5 CALM 0 0 0 0 1022.5 1022.6 0.0
22/06:30am 0.3 -2.7 -1.6 87 0.7 S 4 7 2 4 1022.2 - 0.0
22/06:00am 0.9 -2.4 -1.0 87 0.7 S 6 7 3 4 1021.9 1022.0 0.0
22/05:30am 1.4 -1.4 -0.7 86 0.8 S 4 6 2 3 1021.7 - 0.0
22/05:00am 2.5 -0.7 0.9 89 0.6 SSW 7 9 4 5 1021.5 1021.6 0.0
22/04:30am 1.6 -1.8 -0.3 87 0.7 SW 7 9 4 5 1021.4 - 0.0
22/04:00am 2.0 -1.1 0.4 89 0.6 S 6 7 3 4 1021.5 1021.6 0.0
22/03:30am 1.3 -2.0 -1.4 82 1.0 SSW 6 7 3 4 1021.7 - 0.0
22/03:00am 2.6 -0.7 -0.2 82 1.0 WSW 7 9 4 5 1021.5 1021.6 0.0
22/02:30am 3.3 0.1 0.7 83 1.0 SW 7 9 4 5 1021.3 - 0.0
22/02:00am 2.7 -0.5 -0.2 81 1.1 WSW 6 6 3 3 1021.4 1021.5 0.0
22/01:30am 3.1 -0.2 0.3 82 1.1 WSW 7 7 4 4 1021.7 - 0.0
22/01:00am 3.7 0.5 0.7 81 1.1 SW 7 9 4 5 1021.6 1021.7 0.0
22/12:30am 4.1 1.1 1.0 80 1.2 S 6 6 3 3 1021.7 - 0.0
22/12:00am 4.9 2.1 2.1 82 1.1 S 6 7 3 4 1021.7 1021.8 0.0
 
Date/Time
EST
Temp
°C
App
Temp
°C
Dew
Point
Rel
Hum
%
Delta-T
°C
Wind Press
QNH
hPa
Press
MSL
hPa
Rain
since 9 am
mm
Dir
 
Spd
km/h
Gust
km/h
Spd
kts
Gust
kts
21/11:30pm 3.8 1.5 0.1 77 1.4 SW 2 17 1 9 1022.0 - 0.0
21/11:00pm 4.6 2.8 0.9 77 1.4 CALM 0 6 0 3 1022.1 1022.2 0.0
21/10:30pm 5.0 1.8 0.8 74 1.6 WSW 7 9 4 5 1022.2 - 0.0
21/10:00pm 5.8 2.9 1.3 73 1.8 SSW 6 9 3 5 1022.2 1022.3 0.0
21/09:30pm 6.6 3.8 2.1 73 1.8 S 6 7 3 4 1022.2 - 0.0
21/09:00pm 6.8 3.9 1.5 69 2.1 S 6 6 3 3 1022.2 1022.3 0.0
21/08:30pm 7.8 5.0 1.9 66 2.4 S 6 7 3 4 1022.0 - 0.0
21/08:00pm 8.7 5.8 2.5 65 2.6 S 7 7 4 4 1021.9 1022.0 0.0
21/07:30pm 9.7 7.1 3.0 63 2.9 SSW 6 7 3 4 1021.8 - 0.0
21/07:00pm 10.5 7.5 2.1 56 3.6 SSW 7 7 4 4 1021.6 1021.7 0.0
21/06:30pm 12.1 9.2 2.8 53 4.1 SSW 7 7 4 4 1021.4 - 0.0
21/06:00pm 14.0 10.8 2.9 47 5.0 SSW 9 9 5 5 1021.1 1021.2 0.0
21/05:30pm 15.9 12.6 2.7 41 6.0 SSW 9 9 5 5 1020.8 - 0.0
21/05:00pm 17.7 14.5 3.2 38 6.7 S 9 11 5 6 1020.5 1020.6 0.0
21/04:30pm 18.1 14.5 2.8 36 7.1 S 11 15 6 8 1020.4 - 0.0
21/04:00pm 18.5 15.5 1.9 33 7.5 S 7 13 4 7 1020.4 1020.5 0.0
21/03:30pm 18.6 15.2 2.0 33 7.6 SSE 9 15 5 8 1020.2 - 0.0
21/03:00pm 18.9 16.1 2.3 33 7.6 SSW 6 15 3 8 1020.3 1020.4 0.0
21/02:30pm 18.7 15.4 2.5 34 7.5 S 9 11 5 6 1020.5 - 0.0
21/02:00pm 18.4 15.7 3.5 37 7.0 S 7 13 4 7 1020.7 1020.8 0.0
21/01:30pm 17.7 15.7 2.5 36 7.0 SE 2 7 1 4 1021.1 - 0.0
21/01:00pm 18.4 15.7 3.8 38 6.9 WNW 7 13 4 7 1021.4 1021.5 0.0
21/12:30pm 17.5 14.7 3.4 39 6.6 N 7 15 4 8 1021.9 - 0.0
21/12:00pm 17.1 14.2 4.4 43 6.0 NW 9 13 5 7 1022.5 1022.6 0.0
21/11:30am 16.4 14.0 5.1 47 5.4 N 7 13 4 7 1023.0 - 0.0
21/11:00am 15.6 12.5 5.5 51 4.8 NNE 11 15 6 8 1023.5 1023.6 0.0
21/10:30am 14.6 12.0 5.9 56 4.2 NE 9 13 5 7 1023.8 - 0.0
21/10:00am 13.3 10.6 5.5 59 3.7 NE 9 15 5 8 1024.0 1024.1 0.0
21/09:30am 11.4 8.6 5.1 65 2.9 E 9 11 5 6 1024.1 - 0.0
21/09:00am 9.9 6.7 4.9 71 2.2 ENE 11 13 6 7 1024.1 1024.2 0.0
21/08:30am 7.2 4.8 4.2 81 1.3 SE 6 6 3 3 1024.0 - 0.0
21/08:00am 4.6 3.2 3.6 93 0.4 CALM 0 0 0 0 1023.7 1023.8 0.0
21/07:30am 1.4 -0.6 -0.2 89 0.6 CALM 0 0 0 0 1023.6 - 0.0
21/07:00am 1.7 -0.3 0.2 90 0.6 CALM 0 0 0 0 1023.4 1023.5 0.0
21/06:30am 2.0 0.0 0.1 87 0.7 CALM 0 0 0 0 1023.2 - 0.0
21/06:00am 2.7 -0.3 0.8 87 0.7 SSE 6 6 3 3 1023.2 1023.3 0.0
21/05:30am 3.4 1.3 1.4 87 0.8 S 2 7 1 4 1023.0 - 0.0
21/05:00am 3.5 1.7 1.4 86 0.8 CALM 0 0 0 0 1023.0 1023.1 0.0
21/04:30am 3.5 1.7 1.2 85 0.9 CALM 0 0 0 0 1022.9 - 0.0
21/04:00am 3.6 1.5 1.6 87 0.8 SSW 2 6 1 3 1023.0 1023.1 0.0
21/03:30am 3.4 1.6 1.4 87 0.8 CALM 0 0 0 0 1023.0 - 0.0
21/03:00am 2.9 0.7 0.8 86 0.8 S 2 6 1 3 1023.1 1023.2 0.0
21/02:30am 3.0 -0.2 0.9 86 0.8 SSE 7 9 4 5 1023.1 - 0.0
21/02:00am 3.4 0.2 0.6 82 1.1 SSE 7 9 4 5 1023.2 1023.3 0.0
21/01:30am 4.1 0.9 0.8 79 1.3 S 7 9 4 5 1023.2 - 0.0
21/01:00am 5.4 2.1 2.4 81 1.2 SSE 9 13 5 7 1023.5 1023.6 0.0
21/12:30am 4.7 0.9 1.9 82 1.1 SSE 11 13 6 7 1023.5 - 0.0
21/12:00am 3.0 -0.7 0.1 81 1.1 SSE 9 11 5 6 1023.9 1024.0 0.0

Other Formats:

Comma delimited format used in spreadsheet applications
http://www.bom.gov.au/fwo/IDN60801/IDN60801.94703.axf

JavaScript Object Notation format (JSON) in row-major order
http://www.bom.gov.au/fwo/IDN60801/IDN60801.94703.json